Time;durP1;ratioP1;P1;durP2;ratioP2;P2;SDS_P1;SDS_P2;PMS_P1;PMS_P2;Temp;Humidity;BMP_temperature;BMP_pressure;BME280_temperature;BME280_humidity;BME280_pressure;Samples;Min_cycle;Max_cycle;Signal;HPM_P1;HPM_P2
2021/01/06 09:17:16;;;;;;;17.17;10.27;;;0.70;99.90;;;;;;6181473;23;20020;-92
2021/01/06 14:35:43;;;;;;;6.57;3.80;;;1.30;99.90;;;;;;6152861;23;20078;-96
2021/01/06 15:15:28;;;;;;;5.80;3.80;;;1.20;99.90;;;;;;6177016;23;20021;-91
2021/01/06 15:18:04;;;;;;;4.97;2.70;;;1.20;99.90;;;;;;6177743;23;20012;-94
2021/01/06 15:20:41;;;;;;;5.67;3.47;;;1.30;99.90;;;;;;6160875;23;20009;-93
2021/01/06 15:23:35;;;;;;;6.13;3.83;;;1.20;99.90;;;;;;6156007;23;20020;-93
2021/01/06 15:26:39;;;;;;;6.67;3.80;;;1.20;99.90;;;;;;6181873;23;20004;-92
2021/01/06 15:29:12;;;;;;;5.67;3.50;;;1.20;99.90;;;;;;6181336;23;20339;-91
2021/01/06 15:31:43;;;;;;;6.40;3.70;;;1.20;99.90;;;;;;6178813;23;20012;-90
2021/01/06 15:34:27;;;;;;;6.55;4.10;;;1.10;99.90;;;;;;6180236;23;20082;-93
2021/01/06 15:36:56;;;;;;;6.77;4.40;;;1.10;99.90;;;;;;6198419;22;20036;-91
2021/01/06 15:39:28;;;;;;;7.70;4.30;;;1.10;99.90;;;;;;6228314;23;20060;-92
2021/01/06 15:42:27;;;;;;;6.82;3.42;;;1.10;99.90;;;;;;6195367;23;20004;-93
2021/01/06 15:44:59;;;;;;;5.80;3.53;;;1.10;99.90;;;;;;6199567;23;20032;-93
2021/01/06 15:47:38;;;;;;;6.40;3.88;;;1.10;99.90;;;;;;6201171;23;20031;-92
2021/01/06 15:50:22;;;;;;;5.57;3.53;;;1.10;99.90;;;;;;6193512;23;20095;-90
2021/01/06 15:58:05;;;;;;;7.77;4.70;;;1.00;99.90;;;;;;6140588;23;20010;-93
2021/01/06 16:00:32;;;;;;;7.50;4.30;;;1.00;99.90;;;;;;6134145;23;20009;-92
2021/01/06 16:03:03;;;;;;;8.33;4.50;;;1.00;99.90;;;;;;6170693;23;19998;-89
2021/01/06 16:05:32;;;;;;;7.90;4.77;;;1.10;99.90;;;;;;6189174;23;19997;-90
2021/01/06 16:08:00;;;;;;;6.63;4.63;;;1.10;99.90;;;;;;6153158;23;20012;-90
2021/01/06 16:10:40;;;;;;;6.63;4.20;;;1.10;99.90;;;;;;6153235;23;20009;-91
2021/01/06 16:13:35;;;;;;;6.97;4.00;;;1.10;99.90;;;;;;6154645;23;20009;-90
2021/01/06 16:16:34;;;;;;;7.53;4.40;;;1.20;99.90;;;;;;6145117;23;20824;-93
2021/01/06 16:19:28;;;;;;;7.07;4.27;;;1.10;99.90;;;;;;6168867;23;20017;-90
2021/01/06 16:24:41;;;;;;;7.03;4.40;;;1.00;99.90;;;;;;6174923;23;20257;-90
2021/01/06 16:27:30;;;;;;;6.40;4.10;;;1.00;99.90;;;;;;6153567;23;20088;-92
2021/01/06 16:30:10;;;;;;;7.40;4.60;;;1.00;99.90;;;;;;6153132;23;20016;-91
2021/01/06 16:32:51;;;;;;;7.40;4.47;;;0.90;99.90;;;;;;6166282;23;20517;-94
2021/01/06 16:35:18;;;;;;;8.13;4.43;;;1.00;99.90;;;;;;6200951;23;20488;-92
2021/01/06 16:37:45;;;;;;;11.47;4.87;;;1.00;99.90;;;;;;6187062;23;20020;-92
2021/01/06 16:40:31;;;;;;;8.57;5.07;;;1.00;99.90;;;;;;6186520;23;20016;-90
2021/01/06 16:43:55;;;;;;;7.03;4.37;;;1.00;99.90;;;;;;6181701;23;20005;-91
2021/01/06 16:46:31;;;;;;;8.00;4.43;;;1.00;99.90;;;;;;6205352;23;20347;-91
2021/01/06 16:49:15;;;;;;;7.27;4.47;;;1.00;99.90;;;;;;6179166;23;20007;-90
2021/01/06 16:51:50;;;;;;;10.30;5.20;;;0.90;99.90;;;;;;6182638;23;20001;-92
2021/01/06 16:54:23;;;;;;;9.60;5.00;;;0.90;99.90;;;;;;6182579;23;20005;-91
2021/01/06 16:56:52;;;;;;;8.15;4.78;;;0.90;99.90;;;;;;6188593;23;20032;-91
2021/01/06 16:59:22;;;;;;;6.97;4.20;;;0.90;99.90;;;;;;6184560;23;20008;-91
2021/01/06 17:01:55;;;;;;;7.60;4.63;;;0.90;99.90;;;;;;6186884;23;20345;-92
2021/01/06 17:04:22;;;;;;;7.53;4.60;;;1.00;99.90;;;;;;6195746;23;20009;-92
2021/01/06 17:06:49;;;;;;;7.07;4.53;;;0.90;99.90;;;;;;6187407;23;20005;-90
2021/01/06 17:09:32;;;;;;;8.40;4.83;;;0.90;99.90;;;;;;6185514;23;20009;-92
2021/01/06 17:12:02;;;;;;;8.37;5.07;;;0.90;99.90;;;;;;6186812;23;20004;-91
2021/01/06 17:14:29;;;;;;;9.60;5.50;;;0.90;99.90;;;;;;6188727;23;20004;-92
2021/01/06 17:17:02;;;;;;;11.13;5.10;;;0.90;99.90;;;;;;6188917;23;20019;-92
2021/01/06 17:19:30;;;;;;;8.40;4.77;;;0.90;99.90;;;;;;6188140;23;20001;-93
2021/01/06 17:21:57;;;;;;;11.00;5.13;;;0.90;99.90;;;;;;6185828;23;20008;-92
2021/01/06 17:24:32;;;;;;;8.93;5.20;;;0.90;99.90;;;;;;6186761;23;20012;-92
2021/01/06 17:27:13;;;;;;;8.13;4.97;;;0.90;99.90;;;;;;6186678;23;20008;-91
2021/01/06 17:29:39;;;;;;;8.80;5.23;;;1.00;99.90;;;;;;6188014;23;20003;-92
2021/01/06 17:32:22;;;;;;;9.90;5.53;;;0.90;99.90;;;;;;6186289;23;20012;-92
2021/01/06 17:34:47;;;;;;;9.65;5.57;;;0.90;99.90;;;;;;6186127;23;20033;-93
2021/01/06 17:37:44;;;;;;;13.10;5.87;;;1.00;99.90;;;;;;6188511;23;20012;-92
2021/01/06 17:40:11;;;;;;;8.77;5.47;;;1.00;99.90;;;;;;6187436;23;20004;-92
2021/01/06 17:42:37;;;;;;;11.00;6.10;;;0.90;99.90;;;;;;6188144;23;20011;-92
2021/01/06 17:45:05;;;;;;;10.30;6.10;;;0.90;99.90;;;;;;6195874;23;20012;-92
2021/01/06 17:47:30;;;;;;;9.80;6.27;;;0.90;99.90;;;;;;6206264;23;20035;-92
2021/01/06 17:49:57;;;;;;;10.77;6.43;;;0.90;99.90;;;;;;6192903;23;20015;-93
2021/01/06 17:52:23;;;;;;;11.10;6.67;;;1.00;99.90;;;;;;6193698;23;19988;-93
2021/01/06 17:54:50;;;;;;;11.13;7.07;;;1.00;99.90;;;;;;6180705;23;20068;-90
2021/01/06 17:57:17;;;;;;;10.47;6.40;;;1.00;99.90;;;;;;6181188;23;20011;-90
2021/01/06 17:59:43;;;;;;;13.00;7.00;;;1.00;99.90;;;;;;6187853;23;20004;-93
2021/01/06 18:02:09;;;;;;;12.73;7.57;;;1.10;99.90;;;;;;6203398;23;20015;-93
2021/01/06 18:04:34;;;;;;;10.33;6.60;;;1.00;99.90;;;;;;6199065;23;20004;-93
2021/01/06 18:07:04;;;;;;;11.40;7.30;;;1.00;99.90;;;;;;6195905;23;20004;-94
2021/01/06 18:09:30;;;;;;;13.70;8.17;;;1.00;99.90;;;;;;6197916;23;20005;-92
2021/01/06 18:12:07;;;;;;;14.10;8.10;;;1.00;99.90;;;;;;6189596;23;20000;-92
2021/01/06 18:14:33;;;;;;;11.07;7.43;;;1.00;99.90;;;;;;6189751;23;20000;-92
2021/01/06 18:17:07;;;;;;;13.00;8.13;;;1.00;99.90;;;;;;6190377;23;20072;-91
2021/01/06 18:19:37;;;;;;;12.67;8.07;;;1.00;99.90;;;;;;6197795;23;20513;-91
2021/01/06 18:22:07;;;;;;;14.87;8.63;;;1.00;99.90;;;;;;6190386;23;20001;-93
2021/01/06 18:24:34;;;;;;;13.03;8.57;;;1.00;99.90;;;;;;6221557;23;20343;-93
2021/01/06 18:27:11;;;;;;;14.97;9.17;;;1.10;99.90;;;;;;6223644;23;20507;-90
2021/01/06 18:29:45;;;;;;;12.90;8.43;;;1.00;99.90;;;;;;6193949;23;20459;-91
2021/01/06 18:32:31;;;;;;;15.33;9.00;;;1.00;99.90;;;;;;6219727;23;20048;-95
2021/01/06 18:35:15;;;;;;;14.07;8.90;;;1.00;99.90;;;;;;6222369;23;20008;-94
2021/01/06 18:37:42;;;;;;;14.37;8.40;;;1.00;99.90;;;;;;6220510;23;20046;-93
2021/01/06 18:40:21;;;;;;;14.63;8.73;;;1.00;99.90;;;;;;6223626;23;20031;-92
2021/01/06 18:42:47;;;;;;;14.93;8.63;;;0.90;99.90;;;;;;6225035;23;20004;-94
2021/01/06 18:45:21;;;;;;;13.17;8.63;;;0.90;99.90;;;;;;6225002;23;20019;-93
2021/01/06 18:47:53;;;;;;;14.03;8.63;;;0.90;99.90;;;;;;6221338;23;20472;-94
2021/01/06 18:50:29;;;;;;;14.40;7.93;;;0.80;99.90;;;;;;6171909;23;20016;-91
2021/01/06 18:53:19;;;;;;;13.63;8.47;;;0.80;99.90;;;;;;6181854;23;20015;-91
2021/01/06 18:55:47;;;;;;;12.77;7.60;;;0.80;99.90;;;;;;6208085;23;20088;-93
2021/01/06 18:58:21;;;;;;;13.57;7.43;;;0.80;99.90;;;;;;6221473;23;19996;-94
2021/01/06 19:00:48;;;;;;;12.23;7.43;;;0.80;99.90;;;;;;6221321;23;20027;-92
2021/01/06 19:06:48;;;;;;;11.20;6.37;;;0.80;99.90;;;;;;6219333;23;20109;-93
2021/01/06 19:17:18;;;;;;;10.87;6.50;;;0.70;99.90;;;;;;6157996;23;20060;-93
2021/01/06 19:20:22;;;;;;;11.83;7.07;;;0.70;99.90;;;;;;6164999;23;20052;-90
2021/01/06 19:22:54;;;;;;;12.30;6.37;;;0.70;99.90;;;;;;6178071;23;20077;-92
2021/01/06 19:25:21;;;;;;;7.13;4.75;;;0.70;99.90;;;;;;6187390;23;20013;-92
2021/01/06 19:27:58;;;;;;;10.60;5.73;;;0.70;99.90;;;;;;6223704;23;20008;-92
2021/01/06 19:30:25;;;;;;;13.70;7.57;;;0.70;99.90;;;;;;6222179;23;20056;-92
2021/01/06 19:33:06;;;;;;;13.13;6.97;;;0.70;99.90;;;;;;6225854;23;20095;-93
2021/01/06 19:35:33;;;;;;;12.40;7.07;;;0.70;99.90;;;;;;6217508;23;20020;-90
2021/01/06 19:38:00;;;;;;;11.93;6.90;;;0.70;99.90;;;;;;6215830;23;20008;-90
2021/01/06 19:40:27;;;;;;;12.43;7.00;;;0.60;99.90;;;;;;6197108;23;20012;-92
2021/01/06 19:42:58;;;;;;;11.30;6.80;;;0.50;99.90;;;;;;6217699;23;20009;-91
2021/01/06 19:45:25;;;;;;;12.77;6.93;;;0.60;99.90;;;;;;6218556;23;20008;-93
2021/01/06 19:48:05;;;;;;;11.53;6.70;;;0.60;99.90;;;;;;6221246;23;20425;-92
2021/01/06 19:50:39;;;;;;;12.93;7.30;;;0.60;99.90;;;;;;6225511;23;20012;-91
2021/01/06 19:53:21;;;;;;;12.67;7.37;;;0.60;99.90;;;;;;6223674;23;20679;-96
2021/01/06 19:56:08;;;;;;;11.90;6.57;;;0.60;99.90;;;;;;6197014;23;20013;-93
2021/01/06 19:58:39;;;;;;;11.53;6.77;;;0.50;99.90;;;;;;6192015;23;20009;-93
2021/01/06 20:01:30;;;;;;;13.17;7.40;;;0.60;99.90;;;;;;6176781;23;20081;-95
2021/01/06 20:04:00;;;;;;;10.37;7.00;;;0.50;99.90;;;;;;6207238;23;20032;-91
2021/01/06 20:06:26;;;;;;;13.27;7.00;;;0.70;99.90;;;;;;6204767;23;19993;-91
2021/01/06 20:09:12;;;;;;;13.73;7.93;;;0.70;99.90;;;;;;6200685;23;20024;-91
2021/01/06 20:11:42;;;;;;;11.53;7.27;;;0.70;99.90;;;;;;6196798;23;20035;-91
2021/01/06 20:14:17;;;;;;;15.40;7.83;;;0.70;99.90;;;;;;6204350;23;20020;-94
2021/01/06 20:16:45;;;;;;;12.80;7.43;;;0.70;99.90;;;;;;6211927;22;20001;-96
2021/01/06 20:19:11;;;;;;;12.43;7.70;;;0.80;99.90;;;;;;6213298;22;20001;-94
2021/01/06 20:21:37;;;;;;;13.43;8.13;;;0.70;99.90;;;;;;6212738;22;20011;-95
2021/01/06 20:24:16;;;;;;;14.27;7.97;;;0.80;99.90;;;;;;6212955;22;20007;-95
2021/01/06 20:26:43;;;;;;;13.40;8.13;;;0.80;99.90;;;;;;6213052;22;20000;-95
2021/01/06 20:29:09;;;;;;;14.97;8.20;;;0.80;99.90;;;;;;6212313;22;19996;-93
2021/01/06 20:31:36;;;;;;;15.47;7.90;;;0.80;99.90;;;;;;6212337;22;19997;-94
2021/01/06 20:34:02;;;;;;;13.07;7.60;;;0.70;99.90;;;;;;6212458;22;20003;-94
2021/01/06 20:36:29;;;;;;;14.30;7.40;;;0.70;99.90;;;;;;6211022;22;20019;-93
2021/01/06 20:38:56;;;;;;;12.07;7.77;;;0.70;99.90;;;;;;6210014;22;19997;-95
2021/01/06 20:41:29;;;;;;;15.67;8.60;;;0.70;99.90;;;;;;6212063;22;20056;-95
2021/01/06 20:43:55;;;;;;;14.33;8.17;;;0.60;99.90;;;;;;6212727;22;20020;-94
2021/01/06 20:46:26;;;;;;;12.97;8.37;;;0.60;99.90;;;;;;6208686;23;20009;-94
2021/01/06 20:48:53;;;;;;;13.97;8.30;;;0.60;99.90;;;;;;6199378;23;20004;-92
2021/01/06 20:51:20;;;;;;;12.37;7.70;;;0.70;99.90;;;;;;6184943;22;20016;-92
2021/01/06 20:53:47;;;;;;;14.77;8.30;;;0.60;99.90;;;;;;6211528;22;20012;-95
2021/01/06 20:56:17;;;;;;;14.40;8.30;;;0.70;99.90;;;;;;6239656;22;20027;-93
2021/01/06 20:58:44;;;;;;;15.67;9.13;;;0.70;99.90;;;;;;6205086;23;20062;-93
2021/01/06 21:01:10;;;;;;;13.37;8.03;;;0.80;99.90;;;;;;6206310;22;19996;-95
2021/01/06 21:03:36;;;;;;;15.57;8.97;;;0.80;99.90;;;;;;6210326;22;20008;-94
2021/01/06 21:06:01;;;;;;;16.00;8.93;;;0.80;99.90;;;;;;6208234;22;20023;-93
2021/01/06 21:08:27;;;;;;;15.93;8.73;;;0.80;99.90;;;;;;6211134;22;20016;-94
2021/01/06 21:10:55;;;;;;;14.83;8.93;;;0.80;99.90;;;;;;6209136;23;20047;-93
2021/01/06 21:13:21;;;;;;;16.07;8.97;;;0.80;99.90;;;;;;6208902;22;20004;-94
2021/01/06 21:15:47;;;;;;;15.37;9.20;;;0.80;99.90;;;;;;6210100;22;20004;-94
2021/01/06 21:18:13;;;;;;;14.13;8.70;;;0.80;99.90;;;;;;6193573;23;20047;-93
2021/01/06 21:20:38;;;;;;;12.27;8.00;;;0.80;99.90;;;;;;6198696;23;20051;-91
2021/01/06 21:23:05;;;;;;;14.03;8.50;;;0.80;99.90;;;;;;6229075;23;20004;-94
2021/01/06 21:25:33;;;;;;;14.30;7.97;;;0.70;99.90;;;;;;6206359;22;20080;-92
2021/01/06 21:27:58;;;;;;;12.63;7.93;;;0.80;99.90;;;;;;6210711;23;20001;-92
2021/01/06 21:30:24;;;;;;;13.37;7.73;;;0.80;99.90;;;;;;6209862;22;20011;-94
2021/01/06 21:32:53;;;;;;;13.23;8.00;;;0.80;99.90;;;;;;6163215;23;20006;-93
2021/01/06 21:35:18;;;;;;;13.23;7.77;;;0.80;99.90;;;;;;6150213;23;20024;-95
2021/01/06 21:37:44;;;;;;;14.53;8.27;;;0.80;99.90;;;;;;6200562;23;20028;-95
2021/01/06 21:40:21;;;;;;;12.30;7.97;;;0.80;99.90;;;;;;6211665;23;19997;-93
2021/01/06 21:42:48;;;;;;;12.37;7.83;;;0.80;99.90;;;;;;6220003;23;19992;-94
2021/01/06 21:45:14;;;;;;;12.73;7.83;;;0.80;99.90;;;;;;6237493;23;20081;-94
2021/01/06 21:47:40;;;;;;;13.17;8.17;;;0.80;99.90;;;;;;6227107;23;20009;-92
2021/01/06 21:50:08;;;;;;;14.67;7.57;;;0.80;99.90;;;;;;6230039;23;20004;-92
2021/01/06 21:52:34;;;;;;;14.03;7.70;;;0.80;99.90;;;;;;6234636;23;19992;-94
2021/01/06 21:55:00;;;;;;;14.80;7.57;;;0.80;99.90;;;;;;6229960;23;20087;-93
2021/01/06 21:57:26;;;;;;;12.93;7.87;;;0.80;99.90;;;;;;6230584;23;20067;-92
2021/01/06 21:59:51;;;;;;;13.77;7.83;;;0.80;99.90;;;;;;6222153;23;20008;-92
2021/01/06 22:02:17;;;;;;;16.87;8.13;;;0.70;99.90;;;;;;6220186;23;20087;-92
2021/01/06 22:04:44;;;;;;;14.50;7.50;;;0.70;99.90;;;;;;6217425;23;20055;-93
2021/01/06 22:07:10;;;;;;;13.33;8.00;;;0.70;99.90;;;;;;6226684;23;19992;-92
2021/01/06 22:09:36;;;;;;;13.20;7.90;;;0.70;99.90;;;;;;6216875;23;20016;-92
2021/01/06 22:12:05;;;;;;;12.93;7.50;;;0.70;99.90;;;;;;6235989;23;20005;-93
2021/01/06 22:19:42;;;;;;;13.17;7.80;;;0.70;99.90;;;;;;6185357;23;20035;-93
2021/01/06 22:22:07;;;;;;;15.37;8.20;;;0.80;99.90;;;;;;6200616;23;19988;-93
2021/01/06 22:24:33;;;;;;;12.93;7.67;;;0.80;99.90;;;;;;6204811;23;20029;-92
2021/01/06 22:27:00;;;;;;;11.37;7.47;;;0.70;99.90;;;;;;6226106;23;20083;-91
2021/01/06 22:29:25;;;;;;;16.37;8.00;;;0.70;99.90;;;;;;6222529;23;20004;-92
2021/01/06 22:31:51;;;;;;;14.30;7.27;;;0.80;99.90;;;;;;6219769;23;20015;-91
2021/01/06 22:34:16;;;;;;;13.73;7.90;;;0.70;99.90;;;;;;6215012;23;20009;-90
2021/01/06 22:36:42;;;;;;;14.60;8.03;;;0.80;99.90;;;;;;6191706;23;20036;-92
2021/01/06 22:39:08;;;;;;;14.93;7.67;;;0.70;99.90;;;;;;6192300;23;20004;-93
2021/01/06 22:41:34;;;;;;;11.67;7.30;;;0.70;99.90;;;;;;6219173;23;19995;-93
2021/01/06 22:44:00;;;;;;;15.90;8.03;;;0.70;99.90;;;;;;6202202;23;20017;-93
2021/01/06 22:46:26;;;;;;;12.57;7.57;;;0.70;99.90;;;;;;6203756;23;20001;-94
2021/01/06 22:49:39;;;;;;;12.50;7.70;;;0.80;99.90;;;;;;6202845;23;20051;-95
2021/01/06 22:52:05;;;;;;;13.70;7.90;;;0.70;99.90;;;;;;6227988;23;20012;-94
2021/01/06 22:54:31;;;;;;;12.07;7.30;;;0.70;99.90;;;;;;6224678;23;20072;-93
2021/01/06 22:56:59;;;;;;;14.97;8.23;;;0.80;99.90;;;;;;6230586;23;20021;-95
2021/01/06 22:59:25;;;;;;;12.77;6.87;;;0.70;99.90;;;;;;6231737;23;20001;-94
2021/01/06 23:01:51;;;;;;;14.03;7.90;;;0.80;99.90;;;;;;6232421;23;20036;-94
2021/01/06 23:04:17;;;;;;;10.87;7.00;;;0.80;99.90;;;;;;6234371;23;19999;-94
2021/01/06 23:06:43;;;;;;;11.57;7.30;;;0.80;99.90;;;;;;6210324;22;20056;-95
